Accueil
METAR-TAF:

METAR-TAF

Aéroports :

Base aérienne de Chièvres

Chièvres, Belgique

latitude: 50-34N, longitude: 003-50E, altitude: 60 m

Observation

Le bulletin a été fait il y a 37 minutes, à 22:25 UTC
Vent 3 kt de ouest/sud-ouest
Température 15°C
Humidité 77%
Pression 1023 hPa
Visibilité 10 km ou plus

METAR: EBCV 172225Z AUTO 25003KT 9999 NCD 15/11 Q1023 BLU

Heure: 01:02 (23:02 UTC)

Prévision

Le bulletin a été fait il y a 7 heures et 21 minutes, à 15:41 UTC
Prévision valable du 17 à 19 UTC au 18 à 07 UTC
Vent 6 kt de ouest
Visibilité 10 km ou plus
Quelques nuages à une hauteur de 3500 ft
Temporairement
du 18 à 02 UTC au 18 à 07 UTC
Visibilité: 5000 m
brume
Evoluant progressivement
du 18 à 04 UTC au 18 à 06 UTC
Vent 5 kt de sud/sud-ouest

TAF: EBCV 171541Z 1719/1807 28006KT 9999 FEW035 TEMPO 1802/1807 5000 BR BECMG 1804/1806 20005KT BY EBWM

Observations et prévisions météorologiques de plus de 4000 aéroports (messages METAR et TAF).

Les stations disponibles sont représentées par des disques jaunes et rouges sur la carte.

Passer la souris dessus pour voir le nom de la station.

Cliquer dessus pour voir les observations et prévisions météorologiques.

Pour changer de carte: cliquez sur les boutons verts avec une croix noire pour zoomer, sur le bouton vert avec un tiret pour effectuer un zoom arrière, ou sur les flèches vertes pour les cartes adjacentes.


METAR-TAF: